sensor_id;sensor_type;location;lat;lon;timestamp;P1;durP1;ratioP1;P2;durP2;ratioP2
6374;SDS011;35400;45.472;-122.822;2024-03-02T00:01:31;0.30;;;0.30;;
6374;SDS011;35400;45.472;-122.822;2024-03-02T00:03:58;0.50;;;0.30;;
6374;SDS011;35400;45.472;-122.822;2024-03-02T00:06:25;1.03;;;0.40;;
6374;SDS011;35400;45.472;-122.822;2024-03-02T00:08:54;1.50;;;1.23;;
6374;SDS011;35400;45.472;-122.822;2024-03-02T00:11:23;0.47;;;0.30;;
6374;SDS011;35400;45.472;-122.822;2024-03-02T00:13:52;0.40;;;0.40;;
6374;SDS011;35400;45.472;-122.822;2024-03-02T00:16:19;0.70;;;0.30;;
6374;SDS011;35400;45.472;-122.822;2024-03-02T00:18:46;1.93;;;0.73;;
6374;SDS011;35400;45.472;-122.822;2024-03-02T00:21:13;0.77;;;0.63;;
6374;SDS011;35400;45.472;-122.822;2024-03-02T00:23:42;2.83;;;1.57;;
6374;SDS011;35400;45.472;-122.822;2024-03-02T00:26:09;9.17;;;5.90;;
6374;SDS011;35400;45.472;-122.822;2024-03-02T00:28:38;1.93;;;1.47;;
6374;SDS011;35400;45.472;-122.822;2024-03-02T00:31:08;9.63;;;5.77;;
6374;SDS011;35400;45.472;-122.822;2024-03-02T00:33:35;4.57;;;1.10;;
6374;SDS011;35400;45.472;-122.822;2024-03-02T00:36:06;4.70;;;3.77;;
6374;SDS011;35400;45.472;-122.822;2024-03-02T00:38:34;2.30;;;1.50;;
6374;SDS011;35400;45.472;-122.822;2024-03-02T00:41:08;6.83;;;3.80;;
6374;SDS011;35400;45.472;-122.822;2024-03-02T00:43:47;13.20;;;9.33;;
6374;SDS011;35400;45.472;-122.822;2024-03-02T00:46:23;3.43;;;2.17;;
6374;SDS011;35400;45.472;-122.822;2024-03-02T00:48:54;2.43;;;2.17;;
6374;SDS011;35400;45.472;-122.822;2024-03-02T00:51:22;14.90;;;10.97;;
6374;SDS011;35400;45.472;-122.822;2024-03-02T00:53:51;32.43;;;22.50;;
6374;SDS011;35400;45.472;-122.822;2024-03-02T00:56:22;13.30;;;9.50;;
6374;SDS011;35400;45.472;-122.822;2024-03-02T00:58:50;7.63;;;4.70;;
6374;SDS011;35400;45.472;-122.822;2024-03-02T01:01:17;7.87;;;4.80;;
6374;SDS011;35400;45.472;-122.822;2024-03-02T01:03:48;7.57;;;5.60;;
6374;SDS011;35400;45.472;-122.822;2024-03-02T01:06:15;4.53;;;2.67;;
6374;SDS011;35400;45.472;-122.822;2024-03-02T01:08:43;2.67;;;1.63;;
6374;SDS011;35400;45.472;-122.822;2024-03-02T01:11:09;0.90;;;0.90;;
6374;SDS011;35400;45.472;-122.822;2024-03-02T01:13:36;1.57;;;1.20;;
6374;SDS011;35400;45.472;-122.822;2024-03-02T01:16:03;2.37;;;1.60;;
6374;SDS011;35400;45.472;-122.822;2024-03-02T01:18:30;2.27;;;1.30;;
6374;SDS011;35400;45.472;-122.822;2024-03-02T01:20:57;2.07;;;1.50;;
6374;SDS011;35400;45.472;-122.822;2024-03-02T01:23:24;1.87;;;1.70;;
6374;SDS011;35400;45.472;-122.822;2024-03-02T01:25:51;1.40;;;1.30;;
6374;SDS011;35400;45.472;-122.822;2024-03-02T01:28:19;1.30;;;1.20;;
6374;SDS011;35400;45.472;-122.822;2024-03-02T01:30:46;1.00;;;1.00;;
6374;SDS011;35400;45.472;-122.822;2024-03-02T01:33:13;0.70;;;0.70;;
6374;SDS011;35400;45.472;-122.822;2024-03-02T01:35:40;1.00;;;0.80;;
6374;SDS011;35400;45.472;-122.822;2024-03-02T01:38:07;1.43;;;0.73;;
6374;SDS011;35400;45.472;-122.822;2024-03-02T01:40:34;4.07;;;2.90;;
6374;SDS011;35400;45.472;-122.822;2024-03-02T01:43:02;16.77;;;11.73;;
6374;SDS011;35400;45.472;-122.822;2024-03-02T01:45:29;11.67;;;9.63;;
6374;SDS011;35400;45.472;-122.822;2024-03-02T01:47:57;4.17;;;1.97;;
6374;SDS011;35400;45.472;-122.822;2024-03-02T01:50:27;3.13;;;1.23;;
6374;SDS011;35400;45.472;-122.822;2024-03-02T01:52:56;1.47;;;1.13;;
6374;SDS011;35400;45.472;-122.822;2024-03-02T01:55:23;1.80;;;1.40;;
6374;SDS011;35400;45.472;-122.822;2024-03-02T01:57:51;1.80;;;1.13;;
6374;SDS011;35400;45.472;-122.822;2024-03-02T02:00:18;2.10;;;0.87;;
6374;SDS011;35400;45.472;-122.822;2024-03-02T02:02:48;2.77;;;1.00;;
6374;SDS011;35400;45.472;-122.822;2024-03-02T02:05:15;1.40;;;0.80;;
6374;SDS011;35400;45.472;-122.822;2024-03-02T02:07:43;1.43;;;0.90;;
6374;SDS011;35400;45.472;-122.822;2024-03-02T02:10:10;1.13;;;0.60;;
6374;SDS011;35400;45.472;-122.822;2024-03-02T02:12:37;2.20;;;0.90;;
6374;SDS011;35400;45.472;-122.822;2024-03-02T02:15:15;2.03;;;0.97;;
6374;SDS011;35400;45.472;-122.822;2024-03-02T02:17:51;2.90;;;1.10;;
6374;SDS011;35400;45.472;-122.822;2024-03-02T02:20:18;3.83;;;0.97;;
6374;SDS011;35400;45.472;-122.822;2024-03-02T02:23:01;1.70;;;1.20;;
6374;SDS011;35400;45.472;-122.822;2024-03-02T02:25:31;4.23;;;1.63;;
6374;SDS011;35400;45.472;-122.822;2024-03-02T02:27:57;1.40;;;1.30;;
6374;SDS011;35400;45.472;-122.822;2024-03-02T02:30:25;2.77;;;1.50;;
6374;SDS011;35400;45.472;-122.822;2024-03-02T02:32:53;2.23;;;1.33;;
6374;SDS011;35400;45.472;-122.822;2024-03-02T02:35:20;3.77;;;2.33;;
6374;SDS011;35400;45.472;-122.822;2024-03-02T02:37:47;1.50;;;1.33;;
6374;SDS011;35400;45.472;-122.822;2024-03-02T02:40:15;3.40;;;1.90;;
6374;SDS011;35400;45.472;-122.822;2024-03-02T02:42:44;2.50;;;1.50;;
6374;SDS011;35400;45.472;-122.822;2024-03-02T02:45:11;1.93;;;1.40;;
6374;SDS011;35400;45.472;-122.822;2024-03-02T02:47:40;2.37;;;1.30;;
6374;SDS011;35400;45.472;-122.822;2024-03-02T02:50:07;1.43;;;1.00;;
6374;SDS011;35400;45.472;-122.822;2024-03-02T02:52:35;2.00;;;1.13;;
6374;SDS011;35400;45.472;-122.822;2024-03-02T02:55:05;1.40;;;1.20;;
6374;SDS011;35400;45.472;-122.822;2024-03-02T02:57:34;3.03;;;1.20;;
6374;SDS011;35400;45.472;-122.822;2024-03-02T03:00:09;2.10;;;0.93;;
6374;SDS011;35400;45.472;-122.822;2024-03-02T03:02:40;1.47;;;1.00;;
6374;SDS011;35400;45.472;-122.822;2024-03-02T03:05:09;1.33;;;1.20;;
6374;SDS011;35400;45.472;-122.822;2024-03-02T03:07:36;1.70;;;1.20;;
6374;SDS011;35400;45.472;-122.822;2024-03-02T03:10:05;1.23;;;1.00;;
6374;SDS011;35400;45.472;-122.822;2024-03-02T03:12:33;2.17;;;1.30;;
6374;SDS011;35400;45.472;-122.822;2024-03-02T03:15:01;0.80;;;0.80;;
6374;SDS011;35400;45.472;-122.822;2024-03-02T03:17:30;1.13;;;0.93;;
6374;SDS011;35400;45.472;-122.822;2024-03-02T03:19:57;3.47;;;0.97;;
6374;SDS011;35400;45.472;-122.822;2024-03-02T03:22:23;2.53;;;1.70;;
6374;SDS011;35400;45.472;-122.822;2024-03-02T03:24:50;1.93;;;1.30;;
6374;SDS011;35400;45.472;-122.822;2024-03-02T03:27:17;2.10;;;1.90;;
6374;SDS011;35400;45.472;-122.822;2024-03-02T03:29:45;2.20;;;1.67;;
6374;SDS011;35400;45.472;-122.822;2024-03-02T03:32:12;2.70;;;1.57;;
6374;SDS011;35400;45.472;-122.822;2024-03-02T03:34:39;1.87;;;1.73;;
6374;SDS011;35400;45.472;-122.822;2024-03-02T03:37:06;1.20;;;1.10;;
6374;SDS011;35400;45.472;-122.822;2024-03-02T03:39:33;1.20;;;1.10;;
6374;SDS011;35400;45.472;-122.822;2024-03-02T03:42:01;2.30;;;0.97;;
6374;SDS011;35400;45.472;-122.822;2024-03-02T03:44:28;1.43;;;0.90;;
6374;SDS011;35400;45.472;-122.822;2024-03-02T03:46:55;1.50;;;0.90;;
6374;SDS011;35400;45.472;-122.822;2024-03-02T03:49:22;2.77;;;1.20;;
6374;SDS011;35400;45.472;-122.822;2024-03-02T03:51:49;1.17;;;1.03;;
6374;SDS011;35400;45.472;-122.822;2024-03-02T03:54:16;2.23;;;1.23;;
6374;SDS011;35400;45.472;-122.822;2024-03-02T03:56:43;1.40;;;1.17;;
6374;SDS011;35400;45.472;-122.822;2024-03-02T03:59:09;0.70;;;0.70;;
6374;SDS011;35400;45.472;-122.822;2024-03-02T04:01:37;1.73;;;1.07;;
6374;SDS011;35400;45.472;-122.822;2024-03-02T04:04:04;2.47;;;1.10;;
6374;SDS011;35400;45.472;-122.822;2024-03-02T04:06:30;2.10;;;0.90;;
6374;SDS011;35400;45.472;-122.822;2024-03-02T04:08:57;1.63;;;0.90;;
6374;SDS011;35400;45.472;-122.822;2024-03-02T04:11:24;1.47;;;1.00;;
6374;SDS011;35400;45.472;-122.822;2024-03-02T04:13:51;1.77;;;1.10;;
6374;SDS011;35400;45.472;-122.822;2024-03-02T04:16:18;1.27;;;1.00;;
6374;SDS011;35400;45.472;-122.822;2024-03-02T04:18:45;0.90;;;0.80;;
6374;SDS011;35400;45.472;-122.822;2024-03-02T04:21:12;1.10;;;1.00;;
6374;SDS011;35400;45.472;-122.822;2024-03-02T04:23:38;1.20;;;1.03;;
6374;SDS011;35400;45.472;-122.822;2024-03-02T04:26:05;1.13;;;1.03;;
6374;SDS011;35400;45.472;-122.822;2024-03-02T04:28:32;2.53;;;1.50;;
6374;SDS011;35400;45.472;-122.822;2024-03-02T04:30:59;2.60;;;2.30;;
6374;SDS011;35400;45.472;-122.822;2024-03-02T04:33:26;2.70;;;2.17;;
6374;SDS011;35400;45.472;-122.822;2024-03-02T04:35:53;2.73;;;2.20;;
6374;SDS011;35400;45.472;-122.822;2024-03-02T04:38:19;4.07;;;2.90;;
6374;SDS011;35400;45.472;-122.822;2024-03-02T04:40:46;3.00;;;2.63;;
6374;SDS011;35400;45.472;-122.822;2024-03-02T04:43:13;2.57;;;1.83;;
6374;SDS011;35400;45.472;-122.822;2024-03-02T04:45:42;3.00;;;1.87;;
6374;SDS011;35400;45.472;-122.822;2024-03-02T04:48:09;1.80;;;1.23;;
6374;SDS011;35400;45.472;-122.822;2024-03-02T04:50:35;1.10;;;0.90;;
6374;SDS011;35400;45.472;-122.822;2024-03-02T04:53:02;2.60;;;1.10;;
6374;SDS011;35400;45.472;-122.822;2024-03-02T04:55:29;1.10;;;1.00;;
6374;SDS011;35400;45.472;-122.822;2024-03-02T04:58:05;0.60;;;0.60;;
6374;SDS011;35400;45.472;-122.822;2024-03-02T05:00:35;2.50;;;0.90;;
6374;SDS011;35400;45.472;-122.822;2024-03-02T05:03:02;0.53;;;0.53;;
6374;SDS011;35400;45.472;-122.822;2024-03-02T05:05:29;0.60;;;0.60;;
6374;SDS011;35400;45.472;-122.822;2024-03-02T05:07:56;1.17;;;0.77;;
6374;SDS011;35400;45.472;-122.822;2024-03-02T05:10:22;2.17;;;0.87;;
6374;SDS011;35400;45.472;-122.822;2024-03-02T05:12:50;0.57;;;0.57;;
6374;SDS011;35400;45.472;-122.822;2024-03-02T05:15:24;1.83;;;0.40;;
6374;SDS011;35400;45.472;-122.822;2024-03-02T05:17:51;0.47;;;0.40;;
6374;SDS011;35400;45.472;-122.822;2024-03-02T05:20:19;0.40;;;0.40;;
6374;SDS011;35400;45.472;-122.822;2024-03-02T05:22:45;0.50;;;0.20;;
6374;SDS011;35400;45.472;-122.822;2024-03-02T05:25:13;0.40;;;0.40;;
6374;SDS011;35400;45.472;-122.822;2024-03-02T05:27:39;0.40;;;0.40;;
6374;SDS011;35400;45.472;-122.822;2024-03-02T05:30:07;0.53;;;0.50;;
6374;SDS011;35400;45.472;-122.822;2024-03-02T05:32:34;0.67;;;0.40;;
6374;SDS011;35400;45.472;-122.822;2024-03-02T05:35:01;0.30;;;0.30;;
6374;SDS011;35400;45.472;-122.822;2024-03-02T05:37:28;0.57;;;0.40;;
6374;SDS011;35400;45.472;-122.822;2024-03-02T05:39:55;1.17;;;0.40;;
6374;SDS011;35400;45.472;-122.822;2024-03-02T05:42:22;0.47;;;0.47;;
6374;SDS011;35400;45.472;-122.822;2024-03-02T05:44:49;0.60;;;0.40;;
6374;SDS011;35400;45.472;-122.822;2024-03-02T05:47:16;1.17;;;0.53;;
6374;SDS011;35400;45.472;-122.822;2024-03-02T05:49:42;0.87;;;0.40;;
6374;SDS011;35400;45.472;-122.822;2024-03-02T05:52:11;0.40;;;0.40;;
6374;SDS011;35400;45.472;-122.822;2024-03-02T05:54:38;0.50;;;0.30;;
6374;SDS011;35400;45.472;-122.822;2024-03-02T05:57:05;0.57;;;0.50;;
6374;SDS011;35400;45.472;-122.822;2024-03-02T05:59:50;0.50;;;0.50;;
6374;SDS011;35400;45.472;-122.822;2024-03-02T06:02:17;1.27;;;0.40;;
6374;SDS011;35400;45.472;-122.822;2024-03-02T06:04:44;0.70;;;0.60;;
6374;SDS011;35400;45.472;-122.822;2024-03-02T06:07:11;0.63;;;0.63;;
6374;SDS011;35400;45.472;-122.822;2024-03-02T06:09:38;1.73;;;0.43;;
6374;SDS011;35400;45.472;-122.822;2024-03-02T06:12:05;0.60;;;0.60;;
6374;SDS011;35400;45.472;-122.822;2024-03-02T06:14:32;0.73;;;0.70;;
6374;SDS011;35400;45.472;-122.822;2024-03-02T06:16:58;1.03;;;0.53;;
6374;SDS011;35400;45.472;-122.822;2024-03-02T06:19:25;0.60;;;0.60;;
6374;SDS011;35400;45.472;-122.822;2024-03-02T06:21:53;1.40;;;0.60;;
6374;SDS011;35400;45.472;-122.822;2024-03-02T06:24:20;0.50;;;0.50;;
6374;SDS011;35400;45.472;-122.822;2024-03-02T06:26:46;1.43;;;0.70;;
6374;SDS011;35400;45.472;-122.822;2024-03-02T06:29:13;0.87;;;0.70;;
6374;SDS011;35400;45.472;-122.822;2024-03-02T06:31:40;1.13;;;0.50;;
6374;SDS011;35400;45.472;-122.822;2024-03-02T06:34:07;0.40;;;0.40;;
6374;SDS011;35400;45.472;-122.822;2024-03-02T06:36:34;0.77;;;0.50;;
6374;SDS011;35400;45.472;-122.822;2024-03-02T06:39:01;0.40;;;0.40;;
6374;SDS011;35400;45.472;-122.822;2024-03-02T06:41:27;1.07;;;0.70;;
6374;SDS011;35400;45.472;-122.822;2024-03-02T06:43:54;0.40;;;0.40;;
6374;SDS011;35400;45.472;-122.822;2024-03-02T06:46:25;0.30;;;0.30;;
6374;SDS011;35400;45.472;-122.822;2024-03-02T06:48:52;0.30;;;0.30;;
6374;SDS011;35400;45.472;-122.822;2024-03-02T06:51:19;0.40;;;0.40;;
6374;SDS011;35400;45.472;-122.822;2024-03-02T06:53:46;1.23;;;0.40;;
6374;SDS011;35400;45.472;-122.822;2024-03-02T06:56:13;0.40;;;0.40;;
6374;SDS011;35400;45.472;-122.822;2024-03-02T06:58:39;0.77;;;0.30;;
6374;SDS011;35400;45.472;-122.822;2024-03-02T07:01:08;0.30;;;0.30;;
6374;SDS011;35400;45.472;-122.822;2024-03-02T07:03:35;0.40;;;0.40;;
6374;SDS011;35400;45.472;-122.822;2024-03-02T07:06:02;0.40;;;0.40;;
6374;SDS011;35400;45.472;-122.822;2024-03-02T07:08:29;0.50;;;0.43;;
6374;SDS011;35400;45.472;-122.822;2024-03-02T07:10:56;1.77;;;0.40;;
6374;SDS011;35400;45.472;-122.822;2024-03-02T07:13:23;0.43;;;0.43;;
6374;SDS011;35400;45.472;-122.822;2024-03-02T07:15:49;0.50;;;0.50;;
6374;SDS011;35400;45.472;-122.822;2024-03-02T07:18:32;0.50;;;0.50;;
6374;SDS011;35400;45.472;-122.822;2024-03-02T07:21:09;1.13;;;0.40;;
6374;SDS011;35400;45.472;-122.822;2024-03-02T07:23:36;0.50;;;0.50;;
6374;SDS011;35400;45.472;-122.822;2024-03-02T07:26:03;0.80;;;0.80;;
6374;SDS011;35400;45.472;-122.822;2024-03-02T07:28:30;0.90;;;0.80;;
6374;SDS011;35400;45.472;-122.822;2024-03-02T07:31:03;1.53;;;0.60;;
6374;SDS011;35400;45.472;-122.822;2024-03-02T07:33:31;2.37;;;0.50;;
6374;SDS011;35400;45.472;-122.822;2024-03-02T07:35:57;1.00;;;0.60;;
6374;SDS011;35400;45.472;-122.822;2024-03-02T07:38:26;0.83;;;0.53;;
6374;SDS011;35400;45.472;-122.822;2024-03-02T07:40:54;1.57;;;0.60;;
6374;SDS011;35400;45.472;-122.822;2024-03-02T07:43:21;0.60;;;0.60;;
6374;SDS011;35400;45.472;-122.822;2024-03-02T07:45:48;0.53;;;0.40;;
6374;SDS011;35400;45.472;-122.822;2024-03-02T07:48:15;1.03;;;0.40;;
6374;SDS011;35400;45.472;-122.822;2024-03-02T07:50:42;0.50;;;0.50;;
6374;SDS011;35400;45.472;-122.822;2024-03-02T07:53:09;0.40;;;0.40;;
6374;SDS011;35400;45.472;-122.822;2024-03-02T07:55:37;0.40;;;0.40;;
6374;SDS011;35400;45.472;-122.822;2024-03-02T07:58:04;0.30;;;0.30;;
6374;SDS011;35400;45.472;-122.822;2024-03-02T08:00:31;0.40;;;0.30;;
6374;SDS011;35400;45.472;-122.822;2024-03-02T08:02:58;0.50;;;0.33;;
6374;SDS011;35400;45.472;-122.822;2024-03-02T08:05:26;0.40;;;0.40;;
6374;SDS011;35400;45.472;-122.822;2024-03-02T08:07:53;0.37;;;0.37;;
6374;SDS011;35400;45.472;-122.822;2024-03-02T08:10:20;0.40;;;0.40;;
6374;SDS011;35400;45.472;-122.822;2024-03-02T08:12:47;1.70;;;0.40;;
6374;SDS011;35400;45.472;-122.822;2024-03-02T08:15:13;0.93;;;0.30;;
6374;SDS011;35400;45.472;-122.822;2024-03-02T08:17:40;0.33;;;0.30;;
6374;SDS011;35400;45.472;-122.822;2024-03-02T08:20:11;0.30;;;0.30;;
6374;SDS011;35400;45.472;-122.822;2024-03-02T08:22:38;0.40;;;0.40;;
6374;SDS011;35400;45.472;-122.822;2024-03-02T08:25:05;0.37;;;0.30;;
6374;SDS011;35400;45.472;-122.822;2024-03-02T08:27:33;0.73;;;0.50;;
6374;SDS011;35400;45.472;-122.822;2024-03-02T08:30:00;0.40;;;0.40;;
6374;SDS011;35400;45.472;-122.822;2024-03-02T08:32:31;0.33;;;0.20;;
6374;SDS011;35400;45.472;-122.822;2024-03-02T08:34:58;0.20;;;0.20;;
6374;SDS011;35400;45.472;-122.822;2024-03-02T08:37:25;0.23;;;0.23;;
6374;SDS011;35400;45.472;-122.822;2024-03-02T08:39:52;0.93;;;0.40;;
6374;SDS011;35400;45.472;-122.822;2024-03-02T08:42:19;0.57;;;0.30;;
6374;SDS011;35400;45.472;-122.822;2024-03-02T08:44:46;0.27;;;0.27;;
6374;SDS011;35400;45.472;-122.822;2024-03-02T08:47:13;0.33;;;0.33;;
6374;SDS011;35400;45.472;-122.822;2024-03-02T08:49:39;0.40;;;0.40;;
6374;SDS011;35400;45.472;-122.822;2024-03-02T08:52:06;0.30;;;0.30;;
6374;SDS011;35400;45.472;-122.822;2024-03-02T08:54:33;0.40;;;0.40;;
6374;SDS011;35400;45.472;-122.822;2024-03-02T08:57:01;0.83;;;0.30;;
6374;SDS011;35400;45.472;-122.822;2024-03-02T08:59:28;0.50;;;0.30;;
6374;SDS011;35400;45.472;-122.822;2024-03-02T09:01:55;0.20;;;0.20;;
6374;SDS011;35400;45.472;-122.822;2024-03-02T09:04:22;0.20;;;0.20;;
6374;SDS011;35400;45.472;-122.822;2024-03-02T09:06:49;0.30;;;0.30;;
6374;SDS011;35400;45.472;-122.822;2024-03-02T09:09:15;0.30;;;0.20;;
6374;SDS011;35400;45.472;-122.822;2024-03-02T09:11:42;0.30;;;0.30;;
6374;SDS011;35400;45.472;-122.822;2024-03-02T09:14:09;0.30;;;0.30;;
6374;SDS011;35400;45.472;-122.822;2024-03-02T09:16:36;0.30;;;0.30;;
6374;SDS011;35400;45.472;-122.822;2024-03-02T09:19:03;0.30;;;0.30;;
6374;SDS011;35400;45.472;-122.822;2024-03-02T09:21:30;0.30;;;0.30;;
6374;SDS011;35400;45.472;-122.822;2024-03-02T09:23:57;0.30;;;0.30;;
6374;SDS011;35400;45.472;-122.822;2024-03-02T09:26:24;0.20;;;0.20;;
6374;SDS011;35400;45.472;-122.822;2024-03-02T09:28:52;0.40;;;0.40;;
6374;SDS011;35400;45.472;-122.822;2024-03-02T09:31:18;0.37;;;0.33;;
6374;SDS011;35400;45.472;-122.822;2024-03-02T09:33:45;1.90;;;0.57;;
6374;SDS011;35400;45.472;-122.822;2024-03-02T09:36:19;0.30;;;0.30;;
6374;SDS011;35400;45.472;-122.822;2024-03-02T09:38:46;0.37;;;0.37;;
6374;SDS011;35400;45.472;-122.822;2024-03-02T09:41:14;0.60;;;0.30;;
6374;SDS011;35400;45.472;-122.822;2024-03-02T09:43:41;0.83;;;0.40;;
6374;SDS011;35400;45.472;-122.822;2024-03-02T09:46:09;0.30;;;0.30;;
6374;SDS011;35400;45.472;-122.822;2024-03-02T09:48:37;0.20;;;0.20;;
6374;SDS011;35400;45.472;-122.822;2024-03-02T09:51:04;0.30;;;0.30;;
6374;SDS011;35400;45.472;-122.822;2024-03-02T09:53:32;0.20;;;0.20;;
6374;SDS011;35400;45.472;-122.822;2024-03-02T09:56:00;0.30;;;0.30;;
6374;SDS011;35400;45.472;-122.822;2024-03-02T09:58:27;0.43;;;0.30;;
6374;SDS011;35400;45.472;-122.822;2024-03-02T10:00:54;0.27;;;0.27;;
6374;SDS011;35400;45.472;-122.822;2024-03-02T10:03:22;0.20;;;0.20;;
6374;SDS011;35400;45.472;-122.822;2024-03-02T10:05:52;0.30;;;0.30;;
6374;SDS011;35400;45.472;-122.822;2024-03-02T10:08:19;0.30;;;0.30;;
6374;SDS011;35400;45.472;-122.822;2024-03-02T10:10:46;0.33;;;0.33;;
6374;SDS011;35400;45.472;-122.822;2024-03-02T10:13:13;0.20;;;0.20;;
6374;SDS011;35400;45.472;-122.822;2024-03-02T10:15:42;0.27;;;0.27;;
6374;SDS011;35400;45.472;-122.822;2024-03-02T10:18:09;0.20;;;0.20;;
6374;SDS011;35400;45.472;-122.822;2024-03-02T10:20:37;0.20;;;0.20;;
6374;SDS011;35400;45.472;-122.822;2024-03-02T10:23:12;0.20;;;0.20;;
6374;SDS011;35400;45.472;-122.822;2024-03-02T10:25:40;0.50;;;0.50;;
6374;SDS011;35400;45.472;-122.822;2024-03-02T10:28:07;0.20;;;0.20;;
6374;SDS011;35400;45.472;-122.822;2024-03-02T10:30:34;0.30;;;0.30;;
6374;SDS011;35400;45.472;-122.822;2024-03-02T10:33:02;0.27;;;0.27;;
6374;SDS011;35400;45.472;-122.822;2024-03-02T10:35:29;0.30;;;0.30;;
6374;SDS011;35400;45.472;-122.822;2024-03-02T10:38:01;0.20;;;0.20;;
6374;SDS011;35400;45.472;-122.822;2024-03-02T10:40:29;0.30;;;0.20;;
6374;SDS011;35400;45.472;-122.822;2024-03-02T10:42:57;0.20;;;0.20;;
6374;SDS011;35400;45.472;-122.822;2024-03-02T10:45:25;0.60;;;0.20;;
6374;SDS011;35400;45.472;-122.822;2024-03-02T10:47:52;0.20;;;0.20;;
6374;SDS011;35400;45.472;-122.822;2024-03-02T10:50:19;0.30;;;0.20;;
6374;SDS011;35400;45.472;-122.822;2024-03-02T10:52:46;0.23;;;0.20;;
6374;SDS011;35400;45.472;-122.822;2024-03-02T10:55:13;0.43;;;0.27;;
6374;SDS011;35400;45.472;-122.822;2024-03-02T10:57:41;0.20;;;0.20;;
6374;SDS011;35400;45.472;-122.822;2024-03-02T11:00:19;0.20;;;0.20;;
6374;SDS011;35400;45.472;-122.822;2024-03-02T11:02:56;0.30;;;0.30;;
6374;SDS011;35400;45.472;-122.822;2024-03-02T11:05:28;0.30;;;0.30;;
6374;SDS011;35400;45.472;-122.822;2024-03-02T11:08:04;0.20;;;0.20;;
6374;SDS011;35400;45.472;-122.822;2024-03-02T11:10:37;0.20;;;0.20;;
6374;SDS011;35400;45.472;-122.822;2024-03-02T11:13:13;0.40;;;0.40;;
6374;SDS011;35400;45.472;-122.822;2024-03-02T11:15:40;0.23;;;0.23;;
6374;SDS011;35400;45.472;-122.822;2024-03-02T11:18:10;0.27;;;0.27;;
6374;SDS011;35400;45.472;-122.822;2024-03-02T11:20:38;0.30;;;0.30;;
6374;SDS011;35400;45.472;-122.822;2024-03-02T11:23:06;0.43;;;0.30;;
6374;SDS011;35400;45.472;-122.822;2024-03-02T11:25:34;0.90;;;0.33;;
6374;SDS011;35400;45.472;-122.822;2024-03-02T11:28:03;0.40;;;0.40;;
6374;SDS011;35400;45.472;-122.822;2024-03-02T11:33:02;0.30;;;0.30;;
6374;SDS011;35400;45.472;-122.822;2024-03-02T11:35:36;0.40;;;0.40;;
6374;SDS011;35400;45.472;-122.822;2024-03-02T11:38:04;0.30;;;0.30;;
6374;SDS011;35400;45.472;-122.822;2024-03-02T11:40:32;0.20;;;0.20;;
6374;SDS011;35400;45.472;-122.822;2024-03-02T11:42:59;0.43;;;0.40;;
6374;SDS011;35400;45.472;-122.822;2024-03-02T11:45:27;0.37;;;0.37;;
6374;SDS011;35400;45.472;-122.822;2024-03-02T11:47:55;0.70;;;0.40;;
6374;SDS011;35400;45.472;-122.822;2024-03-02T11:53:06;0.40;;;0.40;;
6374;SDS011;35400;45.472;-122.822;2024-03-02T11:55:37;0.57;;;0.30;;
6374;SDS011;35400;45.472;-122.822;2024-03-02T11:58:09;0.40;;;0.40;;
6374;SDS011;35400;45.472;-122.822;2024-03-02T12:00:36;0.30;;;0.30;;
6374;SDS011;35400;45.472;-122.822;2024-03-02T12:03:07;0.30;;;0.30;;
6374;SDS011;35400;45.472;-122.822;2024-03-02T12:05:35;0.57;;;0.33;;
6374;SDS011;35400;45.472;-122.822;2024-03-02T12:08:03;0.27;;;0.27;;
6374;SDS011;35400;45.472;-122.822;2024-03-02T12:10:32;0.30;;;0.30;;
6374;SDS011;35400;45.472;-122.822;2024-03-02T12:13:01;0.30;;;0.30;;
6374;SDS011;35400;45.472;-122.822;2024-03-02T12:15:30;0.47;;;0.20;;
6374;SDS011;35400;45.472;-122.822;2024-03-02T12:17:59;0.77;;;0.70;;
6374;SDS011;35400;45.472;-122.822;2024-03-02T12:20:28;0.20;;;0.20;;
6374;SDS011;35400;45.472;-122.822;2024-03-02T12:23:00;0.27;;;0.27;;
6374;SDS011;35400;45.472;-122.822;2024-03-02T12:25:28;0.23;;;0.20;;
6374;SDS011;35400;45.472;-122.822;2024-03-02T12:27:58;0.20;;;0.20;;
6374;SDS011;35400;45.472;-122.822;2024-03-02T12:30:29;0.20;;;0.20;;
6374;SDS011;35400;45.472;-122.822;2024-03-02T12:32:59;0.30;;;0.30;;
6374;SDS011;35400;45.472;-122.822;2024-03-02T12:35:26;0.33;;;0.33;;
6374;SDS011;35400;45.472;-122.822;2024-03-02T12:37:53;0.23;;;0.23;;
6374;SDS011;35400;45.472;-122.822;2024-03-02T12:40:20;0.20;;;0.20;;
6374;SDS011;35400;45.472;-122.822;2024-03-02T12:42:48;0.20;;;0.20;;
6374;SDS011;35400;45.472;-122.822;2024-03-02T12:45:16;0.27;;;0.27;;
6374;SDS011;35400;45.472;-122.822;2024-03-02T12:47:49;0.50;;;0.50;;
6374;SDS011;35400;45.472;-122.822;2024-03-02T12:50:17;0.33;;;0.33;;
6374;SDS011;35400;45.472;-122.822;2024-03-02T12:52:50;0.30;;;0.30;;
6374;SDS011;35400;45.472;-122.822;2024-03-02T12:55:19;0.40;;;0.40;;
6374;SDS011;35400;45.472;-122.822;2024-03-02T12:57:49;0.30;;;0.30;;
6374;SDS011;35400;45.472;-122.822;2024-03-02T13:00:19;0.30;;;0.30;;
6374;SDS011;35400;45.472;-122.822;2024-03-02T13:02:47;0.23;;;0.23;;
6374;SDS011;35400;45.472;-122.822;2024-03-02T13:05:15;0.20;;;0.20;;
6374;SDS011;35400;45.472;-122.822;2024-03-02T13:07:42;0.27;;;0.27;;
6374;SDS011;35400;45.472;-122.822;2024-03-02T13:10:10;0.50;;;0.50;;
6374;SDS011;35400;45.472;-122.822;2024-03-02T13:12:38;1.20;;;1.10;;
6374;SDS011;35400;45.472;-122.822;2024-03-02T13:15:05;0.90;;;0.60;;
6374;SDS011;35400;45.472;-122.822;2024-03-02T13:17:35;0.70;;;0.70;;
6374;SDS011;35400;45.472;-122.822;2024-03-02T13:20:02;0.73;;;0.73;;
6374;SDS011;35400;45.472;-122.822;2024-03-02T13:22:36;0.50;;;0.50;;
6374;SDS011;35400;45.472;-122.822;2024-03-02T13:25:03;0.30;;;0.30;;
6374;SDS011;35400;45.472;-122.822;2024-03-02T13:27:30;0.30;;;0.30;;
6374;SDS011;35400;45.472;-122.822;2024-03-02T13:29:58;0.20;;;0.20;;
6374;SDS011;35400;45.472;-122.822;2024-03-02T13:32:25;0.27;;;0.27;;
6374;SDS011;35400;45.472;-122.822;2024-03-02T13:34:51;0.23;;;0.23;;
6374;SDS011;35400;45.472;-122.822;2024-03-02T13:37:19;0.10;;;0.10;;
6374;SDS011;35400;45.472;-122.822;2024-03-02T13:39:47;0.20;;;0.20;;
6374;SDS011;35400;45.472;-122.822;2024-03-02T13:42:14;0.30;;;0.30;;
6374;SDS011;35400;45.472;-122.822;2024-03-02T13:44:43;0.17;;;0.17;;
6374;SDS011;35400;45.472;-122.822;2024-03-02T13:47:15;0.30;;;0.30;;
6374;SDS011;35400;45.472;-122.822;2024-03-02T13:49:42;0.40;;;0.40;;
6374;SDS011;35400;45.472;-122.822;2024-03-02T13:52:14;0.30;;;0.30;;
6374;SDS011;35400;45.472;-122.822;2024-03-02T13:54:45;0.30;;;0.30;;
6374;SDS011;35400;45.472;-122.822;2024-03-02T13:57:13;0.20;;;0.20;;
6374;SDS011;35400;45.472;-122.822;2024-03-02T13:59:40;0.30;;;0.30;;
6374;SDS011;35400;45.472;-122.822;2024-03-02T14:02:08;0.20;;;0.20;;
6374;SDS011;35400;45.472;-122.822;2024-03-02T14:04:36;0.20;;;0.20;;
6374;SDS011;35400;45.472;-122.822;2024-03-02T14:07:04;0.27;;;0.27;;
6374;SDS011;35400;45.472;-122.822;2024-03-02T14:09:36;0.20;;;0.20;;
6374;SDS011;35400;45.472;-122.822;2024-03-02T14:12:03;0.20;;;0.20;;
6374;SDS011;35400;45.472;-122.822;2024-03-02T14:14:31;0.20;;;0.20;;
6374;SDS011;35400;45.472;-122.822;2024-03-02T14:16:58;0.20;;;0.20;;
6374;SDS011;35400;45.472;-122.822;2024-03-02T14:19:36;0.27;;;0.27;;
6374;SDS011;35400;45.472;-122.822;2024-03-02T14:22:02;0.20;;;0.20;;
6374;SDS011;35400;45.472;-122.822;2024-03-02T14:24:31;0.20;;;0.20;;
6374;SDS011;35400;45.472;-122.822;2024-03-02T14:26:58;0.30;;;0.30;;
6374;SDS011;35400;45.472;-122.822;2024-03-02T14:29:27;0.20;;;0.20;;
6374;SDS011;35400;45.472;-122.822;2024-03-02T14:31:54;0.30;;;0.30;;